createdAt,value
2018-07-25T00:00:40.087Z,32.70
2018-07-25T00:03:12.011Z,32.70
2018-07-25T00:05:43.906Z,32.70
2018-07-25T00:08:16.155Z,32.70
2018-07-25T00:10:50.196Z,32.70
2018-07-25T00:13:22.063Z,32.60
2018-07-25T00:15:53.937Z,32.60
2018-07-25T00:18:26.193Z,32.60
2018-07-25T00:20:58.283Z,32.60
2018-07-25T00:23:30.155Z,32.50
2018-07-25T00:26:03.406Z,32.50
2018-07-25T00:28:35.278Z,32.30
2018-07-25T00:31:06.880Z,32.40
2018-07-25T00:33:38.874Z,32.40
2018-07-25T00:36:10.857Z,32.50
2018-07-25T00:38:42.750Z,32.40
2018-07-25T00:41:15.004Z,32.40
2018-07-25T00:43:46.919Z,32.30
2018-07-25T00:46:18.809Z,32.30
2018-07-25T00:48:51.101Z,32.30
2018-07-25T00:51:23.053Z,32.30
2018-07-25T00:53:55.063Z,32.40
2018-07-25T00:56:27.031Z,32.30
2018-07-25T00:58:58.854Z,32.30
2018-07-25T01:01:30.607Z,32.20
2018-07-25T01:04:03.094Z,32.30
2018-07-25T01:06:35.345Z,32.30
2018-07-25T01:09:08.769Z,32.20
2018-07-25T01:11:40.422Z,32.20
2018-07-25T01:14:12.611Z,32.20
2018-07-25T01:16:44.446Z,32.20
2018-07-25T01:19:16.581Z,32.10
2018-07-25T01:21:48.478Z,32.20
2018-07-25T01:24:20.593Z,32.20
2018-07-25T01:26:52.788Z,32.10
2018-07-25T01:29:25.038Z,32.20
2018-07-25T01:31:57.048Z,32.10
2018-07-25T01:34:29.177Z,32.10
2018-07-25T01:37:01.078Z,32.20
2018-07-25T01:39:33.130Z,32.20
2018-07-25T01:42:04.914Z,32.20
2018-07-25T01:44:36.722Z,32.10
2018-07-25T01:47:08.555Z,32.10
2018-07-25T01:49:40.666Z,32.10
2018-07-25T01:54:43.686Z,32.00
2018-07-25T01:57:15.337Z,32.00
2018-07-25T01:59:47.454Z,32.00
2018-07-25T02:02:19.309Z,32.00
2018-07-25T02:04:51.255Z,32.00
2018-07-25T02:07:23.170Z,32.00
2018-07-25T02:09:55.551Z,32.10
2018-07-25T02:12:27.445Z,32.10
2018-07-25T02:14:59.701Z,32.00
2018-07-25T02:17:31.555Z,32.00
2018-07-25T02:22:34.294Z,32.10
2018-07-25T02:25:06.286Z,32.10
2018-07-25T02:27:38.957Z,32.20
2018-07-25T02:30:10.874Z,32.30
2018-07-25T02:32:42.647Z,32.40
2018-07-25T02:37:45.395Z,32.40
2018-07-25T02:40:17.610Z,32.40
2018-07-25T02:42:49.686Z,32.60
2018-07-25T02:45:21.551Z,32.70
2018-07-25T02:47:53.307Z,32.70
2018-07-25T02:50:25.406Z,32.80
2018-07-25T02:52:57.415Z,33.00
2018-07-25T02:58:00.506Z,33.20
2018-07-25T03:00:32.628Z,33.20
2018-07-25T03:03:04.459Z,33.30
2018-07-25T03:05:36.630Z,33.50
2018-07-25T03:08:09.248Z,33.40
2018-07-25T03:10:46.396Z,33.60
2018-07-25T03:13:18.107Z,33.70
2018-07-25T03:15:55.938Z,33.70
2018-07-25T03:18:27.688Z,34.00
2018-07-25T03:21:01.219Z,34.00
2018-07-25T03:23:34.174Z,33.90
2018-07-25T03:26:06.119Z,34.10
2018-07-25T03:28:38.436Z,34.20
2018-07-25T03:33:40.850Z,34.60
2018-07-25T03:36:12.806Z,34.60
2018-07-25T03:38:44.631Z,34.60
2018-07-25T03:41:16.463Z,34.60
2018-07-25T03:43:48.121Z,34.90
2018-07-25T03:46:20.434Z,35.00
2018-07-25T03:48:52.119Z,35.10
2018-07-25T03:51:24.049Z,35.10
2018-07-25T03:53:55.914Z,35.30
2018-07-25T03:56:27.933Z,35.50
2018-07-25T03:58:59.702Z,35.50
2018-07-25T04:01:31.882Z,35.70
2018-07-25T04:04:03.762Z,35.70
2018-07-25T04:06:36.047Z,35.90
2018-07-25T04:09:09.872Z,36.00
2018-07-25T04:11:41.950Z,36.20
2018-07-25T04:14:13.725Z,36.40
2018-07-25T04:16:45.942Z,36.70
2018-07-25T04:19:17.907Z,36.90
2018-07-25T04:21:50.349Z,37.00
2018-07-25T04:24:22.093Z,37.40
2018-07-25T04:26:54.558Z,37.80
2018-07-25T04:29:27.239Z,37.90
2018-07-25T04:31:59.388Z,37.90
2018-07-25T04:34:31.150Z,37.90
2018-07-25T04:37:03.187Z,38.10
2018-07-25T04:42:06.103Z,38.80
2018-07-25T04:47:09.339Z,39.80
2018-07-25T04:49:41.177Z,40.30
2018-07-25T04:54:44.752Z,42.60
2018-07-25T04:57:17.492Z,43.50
2018-07-25T05:02:20.473Z,45.00
2018-07-25T05:04:52.399Z,45.30
2018-07-25T05:07:26.105Z,44.80
2018-07-25T05:09:58.014Z,44.30
2018-07-25T05:12:30.066Z,44.00
2018-07-25T05:15:01.959Z,43.90
2018-07-25T05:17:34.003Z,43.70
2018-07-25T05:20:05.530Z,44.30
2018-07-25T05:22:37.393Z,44.90
2018-07-25T05:27:40.246Z,46.60
2018-07-25T05:30:12.647Z,47.10
2018-07-25T05:32:44.527Z,48.00
2018-07-25T05:35:16.417Z,47.60
2018-07-25T05:37:49.245Z,47.50
2018-07-25T05:40:20.856Z,47.10
2018-07-25T05:42:52.979Z,46.30
2018-07-25T05:45:24.553Z,46.00
2018-07-25T05:52:59.353Z,45.50
2018-07-25T05:55:31.165Z,45.70
2018-07-25T05:58:03.279Z,45.60
2018-07-25T06:00:35.206Z,46.00
2018-07-25T06:03:07.646Z,47.20
2018-07-25T06:05:39.454Z,47.80
2018-07-25T06:08:11.727Z,47.40
2018-07-25T06:10:43.587Z,48.60
2018-07-25T06:13:15.658Z,49.00
2018-07-25T06:15:47.545Z,48.20
2018-07-25T06:20:50.399Z,49.10
2018-07-25T06:23:22.744Z,48.40
2018-07-25T06:25:54.564Z,48.90
2018-07-25T06:30:59.652Z,47.40
2018-07-25T06:36:02.761Z,47.00
2018-07-25T06:43:37.741Z,45.60
2018-07-25T06:46:09.568Z,45.70
2018-07-25T06:48:41.515Z,45.90
2018-07-25T06:51:13.447Z,45.70
2018-07-25T06:53:45.165Z,45.90
2018-07-25T06:56:16.852Z,45.60
2018-07-25T06:58:48.974Z,46.00
2018-07-25T07:01:21.186Z,47.00
2018-07-25T07:03:53.711Z,47.80
2018-07-25T07:06:25.497Z,48.40
2018-07-25T07:08:57.571Z,48.90
2018-07-25T07:11:29.402Z,50.10
2018-07-25T07:14:01.458Z,49.90
2018-07-25T07:16:33.246Z,50.20
2018-07-25T07:19:05.142Z,50.30
2018-07-25T07:21:36.549Z,50.10
2018-07-25T07:24:08.506Z,48.80
2018-07-25T07:26:40.508Z,48.10
2018-07-25T07:29:12.546Z,47.10
2018-07-25T07:31:44.951Z,46.90
2018-07-25T07:39:18.981Z,45.50
2018-07-25T07:41:50.597Z,45.10
2018-07-25T07:44:22.617Z,45.00
2018-07-25T07:46:54.154Z,44.90
2018-07-25T07:49:26.157Z,44.80
2018-07-25T07:51:57.766Z,44.70
2018-07-25T07:54:29.663Z,44.40
2018-07-25T07:57:01.688Z,44.10
2018-07-25T07:59:33.203Z,43.90
2018-07-25T08:02:04.861Z,43.50
2018-07-25T08:04:37.808Z,43.20
2018-07-25T08:07:09.458Z,43.10
2018-07-25T08:09:41.414Z,43.10
2018-07-25T08:12:13.123Z,42.80
2018-07-25T08:14:44.911Z,42.80
2018-07-25T08:17:16.295Z,42.80
2018-07-25T08:19:48.937Z,42.80
2018-07-25T08:22:20.319Z,42.80
2018-07-25T08:24:52.134Z,42.80
2018-07-25T08:29:54.766Z,42.80
2018-07-25T08:39:59.502Z,42.70
2018-07-25T08:42:31.371Z,42.60
2018-07-25T08:45:03.691Z,42.50
2018-07-25T08:47:35.626Z,42.40
2018-07-25T08:50:09.215Z,42.20
2018-07-25T08:57:42.935Z,42.30
2018-07-25T09:00:14.975Z,42.50
2018-07-25T09:02:46.618Z,42.40
2018-07-25T09:05:18.979Z,42.40
2018-07-25T09:07:50.730Z,42.60
2018-07-25T09:10:22.485Z,42.60
2018-07-25T09:12:54.022Z,42.60
2018-07-25T09:15:25.780Z,42.40
2018-07-25T09:20:28.587Z,42.30
2018-07-25T09:23:00.263Z,42.20
2018-07-25T09:25:32.324Z,42.10
2018-07-25T09:28:04.334Z,42.10
2018-07-25T09:30:35.902Z,41.80
2018-07-25T09:33:07.515Z,42.00
2018-07-25T09:35:39.475Z,41.90
2018-07-25T09:38:11.058Z,41.50
2018-07-25T09:40:42.684Z,41.70
2018-07-25T09:43:14.437Z,42.00
2018-07-25T09:45:46.392Z,42.10
2018-07-25T09:48:18.110Z,42.00
2018-07-25T09:50:49.790Z,42.20
2018-07-25T09:53:21.412Z,42.10
2018-07-25T09:55:53.475Z,42.00
2018-07-25T09:58:25.215Z,41.90
2018-07-25T10:00:57.786Z,41.90
2018-07-25T10:03:29.466Z,42.00
2018-07-25T10:06:02.640Z,41.90
2018-07-25T10:08:34.178Z,41.80
2018-07-25T10:13:36.682Z,41.70
2018-07-25T10:16:09.006Z,41.70
2018-07-25T10:18:40.888Z,41.40
2018-07-25T10:26:14.962Z,41.80
2018-07-25T10:33:48.340Z,41.50
2018-07-25T10:38:51.186Z,41.20
2018-07-25T10:46:24.780Z,41.10
2018-07-25T10:48:56.338Z,41.10
2018-07-25T10:53:59.099Z,41.20
2018-07-25T10:56:30.881Z,41.20
2018-07-25T10:59:02.660Z,41.10
2018-07-25T11:01:34.987Z,41.10
2018-07-25T11:04:06.775Z,41.20
2018-07-25T11:06:40.889Z,41.20
2018-07-25T11:09:12.543Z,41.20
2018-07-25T11:11:44.494Z,41.20
2018-07-25T11:16:47.287Z,41.20
2018-07-25T11:19:19.115Z,41.10
2018-07-25T11:21:50.876Z,41.00
2018-07-25T11:24:23.016Z,41.10
2018-07-25T11:29:26.380Z,41.10
2018-07-25T11:31:58.386Z,40.90
2018-07-25T11:34:30.151Z,41.00
2018-07-25T11:37:01.991Z,41.00
2018-07-25T11:39:33.982Z,40.80
2018-07-25T11:44:36.863Z,40.80
2018-07-25T11:47:08.845Z,40.80
2018-07-25T11:49:40.560Z,40.70
2018-07-25T11:52:12.380Z,40.70
2018-07-25T11:54:44.208Z,40.70
2018-07-25T11:57:16.315Z,40.60
2018-07-25T11:59:48.178Z,40.70
2018-07-25T12:02:19.995Z,40.70
2018-07-25T12:04:51.542Z,40.70
2018-07-25T12:07:24.069Z,40.70
2018-07-25T12:09:56.325Z,40.70
2018-07-25T12:17:30.490Z,40.70
2018-07-25T12:22:33.276Z,40.70
2018-07-25T12:25:04.935Z,40.60
2018-07-25T12:27:37.015Z,40.50
2018-07-25T12:30:09.535Z,40.50
2018-07-25T12:32:41.311Z,40.50
2018-07-25T12:35:13.085Z,40.40
2018-07-25T12:37:45.155Z,40.40
2018-07-25T12:40:16.943Z,40.30
2018-07-25T12:42:48.724Z,40.20
2018-07-25T12:45:20.409Z,40.10
2018-07-25T12:47:52.515Z,40.00
2018-07-25T12:50:24.303Z,39.90
2018-07-25T12:52:56.167Z,39.80
2018-07-25T12:57:59.098Z,39.70
2018-07-25T13:00:30.773Z,39.60
2018-07-25T13:03:02.587Z,39.50
2018-07-25T13:05:34.265Z,39.50
2018-07-25T13:08:07.343Z,39.50
2018-07-25T13:10:39.147Z,39.60
2018-07-25T13:13:11.289Z,39.50
2018-07-25T13:15:43.147Z,39.50
2018-07-25T13:18:15.278Z,39.40
2018-07-25T13:25:49.199Z,39.20
2018-07-25T13:28:21.148Z,39.20
2018-07-25T13:30:52.870Z,39.20
2018-07-25T13:33:25.366Z,39.20
2018-07-25T13:35:57.155Z,39.10
2018-07-25T13:38:29.623Z,39.00
2018-07-25T13:41:01.377Z,39.00
2018-07-25T13:43:33.370Z,38.90
2018-07-25T13:46:05.383Z,38.90
2018-07-25T13:48:37.683Z,38.90
2018-07-25T13:51:09.563Z,38.90
2018-07-25T13:53:42.061Z,38.90
2018-07-25T13:56:13.842Z,38.80
2018-07-25T13:58:45.841Z,38.70
2018-07-25T14:01:17.930Z,38.70
2018-07-25T14:06:20.958Z,38.70
2018-07-25T14:08:53.876Z,38.70
2018-07-25T14:11:26.000Z,38.70
2018-07-25T14:13:58.235Z,38.60
2018-07-25T14:16:29.684Z,38.60
2018-07-25T14:19:01.845Z,38.50
2018-07-25T14:21:33.635Z,38.40
2018-07-25T14:24:05.949Z,38.40
2018-07-25T14:26:37.799Z,38.30
2018-07-25T14:29:09.976Z,38.30
2018-07-25T14:31:41.679Z,38.20
2018-07-25T14:34:13.910Z,38.10
2018-07-25T14:36:45.635Z,38.10
2018-07-25T14:39:18.244Z,38.20
2018-07-25T14:41:49.962Z,38.00
2018-07-25T14:44:21.854Z,37.90
2018-07-25T14:46:53.557Z,38.00
2018-07-25T14:49:25.643Z,37.90
2018-07-25T14:51:57.935Z,37.90
2018-07-25T14:54:30.178Z,37.90
2018-07-25T14:57:01.727Z,37.80
2018-07-25T14:59:33.470Z,37.70
2018-07-25T15:04:35.998Z,37.70
2018-07-25T15:07:07.830Z,37.70
2018-07-25T15:09:41.542Z,37.60
2018-07-25T15:12:13.717Z,37.50
2018-07-25T15:14:45.782Z,37.50
2018-07-25T15:17:17.622Z,37.50
2018-07-25T15:19:49.167Z,37.40
2018-07-25T15:22:20.762Z,37.40
2018-07-25T15:24:52.574Z,37.40
2018-07-25T15:27:24.203Z,37.40
2018-07-25T15:29:56.110Z,37.40
2018-07-25T15:34:59.201Z,37.20
2018-07-25T15:37:30.859Z,37.20
2018-07-25T15:40:04.351Z,37.20
2018-07-25T15:42:35.939Z,37.20
2018-07-25T15:47:38.655Z,37.10
2018-07-25T15:50:10.730Z,37.10
2018-07-25T15:52:42.510Z,37.10
2018-07-25T15:55:14.374Z,37.00
2018-07-25T15:57:46.083Z,37.00
2018-07-25T16:00:18.051Z,37.00
2018-07-25T16:05:20.622Z,36.90
2018-07-25T16:07:52.302Z,36.90
2018-07-25T16:10:24.692Z,36.80
2018-07-25T16:12:56.382Z,36.80
2018-07-25T16:15:28.195Z,36.80
2018-07-25T16:17:59.766Z,36.80
2018-07-25T16:20:32.161Z,36.80
2018-07-25T16:23:03.803Z,36.70
2018-07-25T16:25:35.744Z,36.70
2018-07-25T16:30:38.539Z,36.70
2018-07-25T16:33:10.355Z,36.60
2018-07-25T16:35:42.534Z,36.60
2018-07-25T16:38:14.427Z,36.60
2018-07-25T16:40:46.299Z,36.60
2018-07-25T16:43:18.090Z,36.60
2018-07-25T16:45:49.903Z,36.60
2018-07-25T16:50:54.322Z,36.50
2018-07-25T16:53:26.987Z,36.50
2018-07-25T16:55:58.905Z,36.60
2018-07-25T16:58:30.674Z,36.50
2018-07-25T17:01:02.498Z,36.50
2018-07-25T17:03:34.285Z,36.60
2018-07-25T17:06:06.235Z,36.50
2018-07-25T17:08:37.923Z,36.40
2018-07-25T17:11:10.210Z,36.50
2018-07-25T17:13:42.149Z,36.50
2018-07-25T17:16:14.883Z,36.40
2018-07-25T17:18:46.499Z,36.50
2018-07-25T17:21:18.519Z,36.40
2018-07-25T17:24:05.129Z,36.40
2018-07-25T17:26:41.258Z,36.40
2018-07-25T17:29:13.143Z,36.40
2018-07-25T17:31:44.973Z,36.40
2018-07-25T17:34:17.457Z,36.40
2018-07-25T17:36:49.384Z,36.30
2018-07-25T17:39:20.743Z,36.30
2018-07-25T17:41:53.983Z,36.30
2018-07-25T17:44:25.501Z,36.30
2018-07-25T17:46:58.994Z,36.30
2018-07-25T17:49:30.673Z,36.30
2018-07-25T17:57:06.052Z,36.20
2018-07-25T17:59:43.477Z,36.20
2018-07-25T18:04:47.594Z,36.20
2018-07-25T18:07:19.370Z,36.10
2018-07-25T18:09:53.994Z,36.20
2018-07-25T18:15:00.163Z,36.20
2018-07-25T18:17:31.807Z,36.10
2018-07-25T18:20:04.548Z,36.10
2018-07-25T18:22:39.611Z,36.10
2018-07-25T18:25:11.823Z,36.00
2018-07-25T18:27:44.995Z,36.00
2018-07-25T18:30:20.762Z,36.10
2018-07-25T18:32:53.096Z,36.00
2018-07-25T18:35:24.677Z,36.00
2018-07-25T18:37:56.783Z,35.90
2018-07-25T18:40:32.028Z,35.90
2018-07-25T18:43:05.344Z,35.90
2018-07-25T18:45:40.113Z,35.90
2018-07-25T18:48:14.678Z,36.00
2018-07-25T18:50:46.592Z,35.90
2018-07-25T18:55:53.285Z,35.90
2018-07-25T18:58:27.436Z,35.90
2018-07-25T19:01:00.450Z,35.90
2018-07-25T19:03:32.879Z,35.80
2018-07-25T19:06:04.395Z,35.80
2018-07-25T19:08:36.352Z,35.80
2018-07-25T19:11:08.246Z,35.80
2018-07-25T19:13:46.327Z,35.70
2018-07-25T19:16:18.087Z,35.70
2018-07-25T19:18:49.920Z,35.70
2018-07-25T19:21:21.591Z,35.60
2018-07-25T19:23:53.190Z,35.70
2018-07-25T19:26:24.813Z,35.60
2018-07-25T19:28:56.762Z,35.60
2018-07-25T19:31:28.477Z,35.60
2018-07-25T19:34:00.234Z,35.60
2018-07-25T19:36:31.754Z,35.50
2018-07-25T19:39:03.999Z,35.50
2018-07-25T19:41:35.586Z,35.40
2018-07-25T19:44:07.690Z,35.40
2018-07-25T19:46:39.482Z,35.40
2018-07-25T19:49:11.406Z,35.30
2018-07-25T19:51:42.931Z,35.30
2018-07-25T19:54:14.604Z,35.30
2018-07-25T19:56:46.606Z,35.20
2018-07-25T19:59:18.598Z,35.20
2018-07-25T20:04:22.054Z,35.20
2018-07-25T20:06:54.241Z,35.20
2018-07-25T20:09:26.489Z,35.10
2018-07-25T20:11:58.082Z,35.00
2018-07-25T20:14:36.311Z,35.00
2018-07-25T20:17:07.828Z,35.00
2018-07-25T20:19:40.127Z,35.00
2018-07-25T20:22:11.843Z,35.00
2018-07-25T20:24:43.639Z,34.90
2018-07-25T20:27:15.255Z,34.90
2018-07-25T20:29:47.027Z,34.90
2018-07-25T20:32:18.769Z,34.80
2018-07-25T20:34:50.362Z,34.80
2018-07-25T20:37:22.399Z,34.80
2018-07-25T20:42:25.286Z,34.70
2018-07-25T20:44:56.874Z,34.70
2018-07-25T20:47:28.492Z,34.70
2018-07-25T20:52:31.108Z,34.70
2018-07-25T20:55:03.175Z,34.70
2018-07-25T20:57:35.095Z,34.70
2018-07-25T21:00:07.332Z,34.70
2018-07-25T21:02:39.110Z,34.70
2018-07-25T21:05:11.054Z,34.70
2018-07-25T21:07:42.610Z,34.70
2018-07-25T21:10:14.246Z,34.70
2018-07-25T21:12:46.006Z,34.70
2018-07-25T21:15:18.611Z,34.60
2018-07-25T21:17:50.179Z,34.70
2018-07-25T21:22:52.685Z,34.60
2018-07-25T21:25:24.554Z,34.60
2018-07-25T21:27:55.982Z,34.60
2018-07-25T21:30:27.946Z,34.50
2018-07-25T21:32:59.611Z,34.60
2018-07-25T21:35:31.632Z,34.50
2018-07-25T21:38:03.110Z,34.50
2018-07-25T21:40:35.118Z,34.50
2018-07-25T21:43:06.842Z,34.50
2018-07-25T21:45:38.790Z,34.50
2018-07-25T21:48:10.593Z,34.50
2018-07-25T21:50:42.424Z,34.40
2018-07-25T21:53:14.023Z,34.40
2018-07-25T21:55:45.935Z,34.40
2018-07-25T21:58:17.558Z,34.40
2018-07-25T22:00:58.391Z,34.40
2018-07-25T22:06:00.833Z,34.30
2018-07-25T22:08:32.531Z,34.30
2018-07-25T22:13:35.182Z,34.30
2018-07-25T22:16:08.475Z,34.30
2018-07-25T22:18:39.924Z,34.30
2018-07-25T22:21:11.597Z,34.30
2018-07-25T22:23:43.306Z,34.20
2018-07-25T22:26:15.079Z,34.30
2018-07-25T22:28:46.490Z,34.30
2018-07-25T22:31:18.499Z,34.20
2018-07-25T22:33:50.103Z,34.30
2018-07-25T22:36:21.994Z,34.30
2018-07-25T22:41:25.158Z,34.30
2018-07-25T22:43:56.895Z,34.20
2018-07-25T22:46:28.601Z,34.20
2018-07-25T22:49:00.206Z,34.20
2018-07-25T22:51:32.362Z,34.20
2018-07-25T22:54:03.894Z,34.20
2018-07-25T23:01:37.273Z,34.10
2018-07-25T23:06:39.854Z,34.10
2018-07-25T23:09:12.454Z,34.10
2018-07-25T23:11:44.109Z,34.10
2018-07-25T23:14:15.758Z,34.10
2018-07-25T23:19:18.954Z,34.10
2018-07-25T23:21:50.818Z,34.10
2018-07-25T23:24:22.517Z,34.10
2018-07-25T23:26:54.110Z,34.10
2018-07-25T23:29:25.697Z,34.10
2018-07-25T23:31:57.880Z,34.10
2018-07-25T23:34:29.656Z,34.10
2018-07-25T23:37:01.286Z,34.10
2018-07-25T23:39:32.821Z,34.10
2018-07-25T23:42:04.759Z,34.00
2018-07-25T23:44:36.518Z,34.10
2018-07-25T23:47:08.197Z,34.10
2018-07-25T23:49:40.310Z,34.10
2018-07-25T23:52:12.050Z,34.00
2018-07-25T23:54:43.690Z,34.00
2018-07-25T23:57:16.099Z,34.00
2018-07-25T23:59:47.794Z,34.00
